»·PEaware :: JBU180 KOAK-KLAX

JBU180 :: KOAK-KLAX

FLIGHT INFORMATION

Flight Status: Arrived
Operator:
JetBlue Airways
More flights by this operator :: More flights under this callsign
Pilot: Etienne B. (28927)
Aircraft: AIRBUS A320
(A320)
More flights by this aircraft type
Origin: KOAK Metro Oakland Intl
United States
Destination: KLAX Los Angeles Intl
United States
More flights between these airports :: More routes between these airports
Route: CNDEL4 EBAYE BURGL IRNMN2
File this flight plan on PilotEdge
Remarks: RMK / SIMBRIEF
Altitude:
(Current/Filed)
35,000ft
Speed:
(Current/Filed)
427kts
Departed: 22-Apr-20 05:00 PM
Arrived: 22-Apr-20 05:58 PM
Distance/Time
Traveled:
293nm/0:58
Distance/Time
To Go:
Arrived

Flight Plot

Page will automatically refresh every two minutes.

Flight plan parsing failed; only flown route is shown


Map Options




Map Legend


Flown Route
Filed Route
Departure Airport
Arrival Airport
Navaid (VOR, NDB)
Fix

Horizontal Profiles

Position Reports

Time Latitude Longitude Heading Altitude Ground
Speed
22-Apr-20 16:42 37.711041 -122.216659 117 12ft 0kts
22-Apr-20 16:43 37.711041 -122.216659 117 12ft 0kts
22-Apr-20 16:44 37.711041 -122.216659 117 12ft 0kts
22-Apr-20 16:45 37.711041 -122.216659 117 12ft 0kts
22-Apr-20 16:46 37.711041 -122.216659 117 12ft 0kts
22-Apr-20 16:47 37.711041 -122.216659 117 12ft 0kts
22-Apr-20 16:48 37.711041 -122.216659 117 12ft 0kts
22-Apr-20 16:49 37.711041 -122.216659 117 12ft 0kts
22-Apr-20 16:50 37.711093 -122.216784 117 13ft 2kts
22-Apr-20 16:51 37.711538 -122.217211 174 13ft 2kts
22-Apr-20 16:52 37.711949 -122.217062 215 13ft 0kts
22-Apr-20 16:53 37.711949 -122.217063 215 12ft 0kts
22-Apr-20 16:54 37.711578 -122.217401 216 12ft 0kts
22-Apr-20 16:56 37.710193 -122.217663 127 12ft 10kts
22-Apr-20 16:57 37.707604 -122.217095 219 12ft 12kts
22-Apr-20 16:58 37.705209 -122.215994 129 12ft 11kts
22-Apr-20 16:59 37.702992 -122.213664 160 12ft 10kts
22-Apr-20 17:00 37.704463 -122.218676 309 13ft 88kts
22-Apr-20 17:01 37.734253 -122.265243 309 2209ft 198kts
22-Apr-20 17:02 37.774334 -122.320341 312 5354ft 229kts
22-Apr-20 17:03 37.788435 -122.399716 253 8330ft 262kts
22-Apr-20 17:04 37.724692 -122.446016 189 11219ft 310kts
22-Apr-20 17:05 37.627362 -122.457834 189 12226ft 383kts
22-Apr-20 17:06 37.519340 -122.470172 182 14377ft 401kts
22-Apr-20 17:07 37.427679 -122.391170 132 16312ft 425kts
22-Apr-20 17:08 37.347293 -122.280887 133 18027ft 438kts
22-Apr-20 17:09 37.263471 -122.167327 133 19592ft 452kts
22-Apr-20 17:10 37.177687 -122.051602 133 21068ft 463kts
22-Apr-20 17:11 37.088836 -121.932179 133 22461ft 473kts
22-Apr-20 17:11 37.013688 -121.831511 132 23589ft 479kts
22-Apr-20 17:13 36.906432 -121.688367 132 25059ft 488kts
22-Apr-20 17:14 36.812834 -121.563984 132 26124ft 495kts
22-Apr-20 17:14 36.733880 -121.459430 132 26943ft 502kts
22-Apr-20 17:15 36.637541 -121.332302 133 27871ft 508kts
22-Apr-20 17:17 36.523551 -121.182518 133 28997ft 510kts
22-Apr-20 17:17 36.442444 -121.076345 133 29875ft 510kts
22-Apr-20 17:18 36.349255 -120.943604 130 30846ft 511kts
22-Apr-20 17:19 36.256478 -120.810648 130 31876ft 510kts
22-Apr-20 17:20 36.163675 -120.678167 131 32869ft 508kts
22-Apr-20 17:21 36.071293 -120.546807 131 33794ft 506kts
22-Apr-20 17:22 35.979010 -120.416096 131 34682ft 504kts
22-Apr-20 17:23 35.887525 -120.287149 133 35229ft 502kts
22-Apr-20 17:24 35.774401 -120.189301 151 35235ft 498kts
22-Apr-20 17:25 35.656089 -120.100277 150 35236ft 499kts
22-Apr-20 17:26 35.537972 -120.011140 150 35237ft 499kts
22-Apr-20 17:27 35.420003 -119.922453 150 34530ft 499kts
22-Apr-20 17:28 35.301427 -119.833523 149 33572ft 502kts
22-Apr-20 17:29 35.189222 -119.731048 143 32580ft 505kts
22-Apr-20 17:30 35.077852 -119.627228 143 31072ft 503kts
22-Apr-20 17:31 34.965453 -119.522868 143 27693ft 518kts
22-Apr-20 17:32 34.851217 -119.418821 143 24492ft 514kts
22-Apr-20 17:33 34.745603 -119.324441 144 24025ft 457kts
22-Apr-20 17:34 34.644724 -119.236360 144 22614ft 428kts
22-Apr-20 17:35 34.549422 -119.154189 143 20669ft 416kts
22-Apr-20 17:36 34.457270 -119.072464 143 18736ft 405kts
22-Apr-20 17:37 34.366923 -118.993857 143 16848ft 394kts
22-Apr-20 17:38 34.280356 -118.916538 141 15044ft 381kts
22-Apr-20 17:39 34.197801 -118.840908 141 13538ft 361kts
22-Apr-20 17:40 34.125252 -118.767402 136 12655ft 328kts
22-Apr-20 17:41 34.058350 -118.694764 136 11183ft 320kts
22-Apr-20 17:42 34.023935 -118.605681 93 9997ft 296kts
22-Apr-20 17:43 34.014984 -118.508527 93 8800ft 286kts
22-Apr-20 17:44 34.016084 -118.421154 78 8156ft 257kts
22-Apr-20 17:45 34.021018 -118.341080 83 7300ft 251kts
22-Apr-20 17:46 34.025519 -118.257974 83 6397ft 246kts
22-Apr-20 17:47 34.030922 -118.173141 82 5544ft 257kts
22-Apr-20 17:48 34.036773 -118.093255 82 4460ft 234kts
22-Apr-20 17:49 34.002107 -118.043871 191 3639ft 239kts
22-Apr-20 17:50 33.967048 -118.101146 262 3625ft 214kts
22-Apr-20 17:51 33.959875 -118.165034 265 3567ft 185kts
22-Apr-20 17:52 33.954465 -118.217684 266 2754ft 154kts
22-Apr-20 17:53 33.949425 -118.263209 265 2103ft 142kts
22-Apr-20 17:54 33.944790 -118.309013 265 1325ft 138kts
22-Apr-20 17:55 33.940134 -118.354017 265 614ft 135kts
22-Apr-20 17:56 33.935993 -118.396187 262 115ft 67kts
22-Apr-20 17:57 33.936064 -118.403091 288 126ft 0kts
22-Apr-20 17:58 33.936012 -118.406787 262 132ft 22kts
22-Apr-20 17:59 33.937383 -118.409046 351 134ft 0kts
22-Apr-20 18:00 33.937756 -118.409016 28 133ft 4kts
22-Apr-20 18:01 33.938273 -118.405407 59 131ft 16kts
22-Apr-20 18:02 33.940912 -118.405526 55 129ft 3kts

Navigation Log

Ident Type
Flight plan parsing failed, navigation log unavailable